.
WxDataArchive / Data Records for 2011-01-09
2011-01-08 January 2011 2011-01-10

Data Records for Sunday, 09 January 2011

Time	Temp	Chill	HIndex	Humid	Dewpt	 Wind 	HiWind	WindDir	Rain 	Barom 
-----	----	-----	------	-----	-----	------	------	-------	-----	----- 
00:00	12.1	12.1	12.1	86	8.7	0	1	248	0.00	30.059 
00:05	12.1	12.1	12.1	86	8.7	0	1	248	0.00	30.059 
00:10	11.9	11.9	11.9	86	8.5	0	0	---	0.00	30.059 
00:15	11.7	11.7	11.7	86	8.3	0	0	---	0.00	30.059 
00:20	11.6	11.6	11.6	86	8.2	0	0	---	0.00	30.059 
00:25	11.2	11.2	11.2	86	7.8	0	0	---	0.00	30.059 
00:30	11.2	11.2	11.2	86	7.8	0	2	248	0.00	30.071 
00:35	11.4	11.4	11.4	87	8.3	0	2	248	0.00	30.071 
00:40	11.7	11.7	11.7	87	8.6	0	2	248	0.00	30.071 
00:45	11.9	11.9	11.9	87	8.8	0	2	248	0.00	30.074 
00:50	11.7	11.7	11.7	87	8.6	0	1	248	0.00	30.074 
00:55	11.7	11.7	11.7	86	8.3	0	1	248	0.00	30.074 
01:00	11.7	11.7	11.7	87	8.6	0	1	248	0.00	30.086 
01:05	11.7	11.7	11.7	86	8.3	0	1	248	0.00	30.086 
01:10	11.6	11.6	11.6	86	8.2	0	1	248	0.00	30.086 
01:15	11.4	11.4	11.4	86	8.0	0	1	248	0.00	30.086 
01:20	11.2	11.2	11.2	86	7.8	0	0	---	0.00	30.086 
01:25	11.2	11.2	11.2	86	7.8	0	0	---	0.00	30.086 
01:30	11.1	11.1	11.1	86	7.7	0	0	---	0.00	30.088 
01:35	10.9	10.9	10.9	86	7.6	0	0	---	0.00	30.088 
01:40	10.7	10.7	10.7	86	7.4	0	0	---	0.00	30.088 
01:45	10.5	10.5	10.5	86	7.2	0	0	---	0.00	30.094 
01:50	10.2	10.2	10.2	86	6.9	0	0	---	0.00	30.094 
01:55	10.0	10.0	10.0	86	6.7	0	0	---	0.00	30.094 
02:00	10.0	10.0	10.0	86	6.7	0	0	---	0.00	30.104 
02:05	9.9	9.9	9.9	86	6.6	0	0	---	0.00	30.104 
02:10	10.0	10.0	10.0	86	6.7	0	0	---	0.00	30.104 
02:15	10.2	10.2	10.2	86	6.9	0	0	---	0.00	30.115 
02:20	10.2	10.2	10.2	86	6.9	0	0	---	0.00	30.115 
02:25	10.2	10.2	10.2	86	6.9	0	0	---	0.00	30.115 
02:30	10.4	10.4	10.4	86	7.1	0	1	248	0.00	30.131 
02:35	10.2	10.2	10.2	86	6.9	0	0	---	0.00	30.131 
02:40	10.2	10.2	10.2	86	6.9	0	0	---	0.00	30.131 
02:45	10.0	10.0	10.0	86	6.7	0	0	---	0.00	30.141 
02:50	9.9	9.9	9.9	86	6.6	0	0	---	0.00	30.141 
02:55	9.9	9.9	9.9	86	6.6	0	1	248	0.00	30.141 
03:00	10.0	10.0	10.0	86	6.7	0	0	---	0.00	30.148 
03:05	10.0	10.0	10.0	86	6.7	0	1	248	0.00	30.148 
03:10	10.0	10.0	10.0	86	6.7	0	0	---	0.00	30.148 
03:15	10.0	10.0	10.0	86	6.7	0	0	---	0.00	30.152 
03:20	10.0	10.0	10.0	86	6.7	0	0	---	0.00	30.152 
03:25	10.0	10.0	10.0	86	6.7	0	0	---	0.00	30.152 
03:30	10.2	10.2	10.2	86	6.9	0	0	---	0.00	30.156 
03:35	10.5	10.5	10.5	86	7.2	0	1	248	0.00	30.156 
03:40	10.7	10.7	10.7	86	7.4	0	0	---	0.00	30.156 
03:45	10.7	10.7	10.7	86	7.4	0	0	---	0.00	30.165 
03:50	10.5	10.5	10.5	86	7.2	0	0	---	0.00	30.165 
03:55	10.2	10.2	10.2	86	6.9	0	0	---	0.00	30.165 
04:00	10.0	10.0	10.0	86	6.7	0	0	---	0.00	30.173 
04:05	10.0	10.0	10.0	86	6.7	0	0	---	0.00	30.173 
04:10	10.0	10.0	10.0	86	6.7	0	0	---	0.00	30.173 
04:15	9.9	9.9	9.9	85	6.3	0	0	---	0.00	30.181 
04:20	9.7	9.7	9.7	85	6.1	0	0	---	0.00	30.181 
04:25	9.3	9.3	9.3	85	5.7	0	0	---	0.00	30.181 
04:30	9.0	9.0	9.0	85	5.4	0	0	---	0.00	30.186 
04:35	8.8	8.8	8.8	85	5.2	0	0	---	0.00	30.186 
04:40	8.6	8.6	8.6	85	5.0	0	0	---	0.00	30.186 
04:45	8.6	8.6	8.6	85	5.0	0	0	---	0.00	30.195 
04:50	8.6	8.6	8.6	85	5.0	0	0	---	0.00	30.195 
04:55	8.6	8.6	8.6	85	5.0	0	0	---	0.00	30.195 
05:00	8.6	8.6	8.6	85	5.0	0	0	---	0.00	30.202 
05:05	8.6	8.6	8.6	85	5.0	0	0	---	0.00	30.202 
05:10	8.8	8.8	8.8	85	5.2	0	0	---	0.00	30.202 
05:15	8.8	8.8	8.8	85	5.2	0	0	---	0.00	30.207 
05:20	8.6	8.6	8.6	85	5.0	0	0	---	0.00	30.207 
05:25	8.4	8.4	8.4	85	4.8	0	0	---	0.00	30.207 
05:30	8.3	8.3	8.3	84	4.5	0	0	---	0.00	30.213 
05:35	7.9	7.9	7.9	84	4.1	0	0	---	0.00	30.213 
05:40	7.7	7.7	7.7	84	3.9	0	0	---	0.00	30.213 
05:45	7.7	7.7	7.7	85	4.2	0	0	---	0.00	30.217 
05:50	8.1	8.1	8.1	85	4.5	0	0	---	0.00	30.217 
05:55	8.4	8.4	8.4	85	4.8	0	0	---	0.00	30.217 
06:00	8.8	8.8	8.8	86	5.5	0	0	---	0.00	30.222 
06:05	9.0	9.0	9.0	86	5.7	0	0	---	0.00	30.222 
06:10	9.2	9.2	9.2	85	5.6	0	0	---	0.00	30.222 
06:15	9.2	9.2	9.2	86	5.9	0	0	---	0.00	30.230 
06:20	9.2	9.2	9.2	85	5.6	0	0	---	0.00	30.230 
06:25	9.2	9.2	9.2	85	5.6	0	0	---	0.00	30.230 
06:30	9.0	9.0	9.0	85	5.4	0	0	---	0.00	30.234 
06:35	8.8	8.8	8.8	85	5.2	0	0	---	0.00	30.234 
06:40	8.4	8.4	8.4	85	4.8	0	0	---	0.00	30.234 
06:45	8.3	8.3	8.3	85	4.7	0	0	---	0.00	30.239 
06:50	8.1	8.1	8.1	85	4.5	0	0	---	0.00	30.239 
06:55	7.9	7.9	7.9	85	4.3	0	0	---	0.00	30.239 
07:00	7.9	7.9	7.9	85	4.3	0	0	---	0.00	30.249 
07:05	7.9	7.9	7.9	85	4.3	0	0	---	0.00	30.249 
07:10	7.7	7.7	7.7	84	3.9	0	0	---	0.00	30.249 
07:15	7.4	7.4	7.4	84	3.6	0	0	---	0.00	30.255 
07:20	7.0	7.0	7.0	84	3.2	0	0	---	0.00	30.255 
07:25	6.7	6.7	6.7	84	2.9	0	0	---	0.00	30.255 
07:30	6.1	6.1	6.1	83	2.1	0	0	---	0.00	30.262 
07:35	5.8	5.8	5.8	83	1.8	0	0	---	0.00	30.262 
07:40	5.4	5.4	5.4	83	1.4	0	0	---	0.00	30.262 
07:45	5.0	5.0	5.0	83	1.0	0	0	---	0.00	30.269 
07:50	4.8	4.8	4.8	83	0.8	0	0	---	0.00	30.269 
07:55	4.7	4.7	4.7	82	0.4	0	0	---	0.00	30.269 
08:00	4.5	4.5	4.5	82	0.2	0	0	---	0.00	30.275 
08:05	4.5	4.5	4.5	82	0.2	0	0	---	0.00	30.275 
08:10	4.3	4.3	4.3	82	0.0	0	0	---	0.00	30.275 
08:15	3.9	3.9	3.9	82	-0.3	0	0	---	0.00	30.281 
08:20	3.9	3.9	3.9	82	-0.3	0	0	---	0.00	30.281 
08:25	3.7	3.7	3.7	82	-0.5	0	0	---	0.00	30.281 
08:30	3.5	3.5	3.5	82	-0.7	0	0	---	0.00	30.289 
08:35	3.5	3.5	3.5	82	-0.7	0	0	---	0.00	30.289 
08:40	3.7	3.7	3.7	82	-0.5	0	0	---	0.00	30.289 
08:45	3.9	3.9	3.9	82	-0.3	0	0	---	0.00	30.291 
08:50	4.3	4.3	4.3	82	0.0	0	0	---	0.00	30.291 
08:55	4.5	4.5	4.5	83	0.5	0	0	---	0.00	30.291 
09:00	4.8	4.8	4.8	83	0.8	0	0	---	0.00	30.304 
09:05	5.4	5.4	5.4	83	1.4	0	0	---	0.00	30.304 
09:10	6.0	6.0	6.0	83	2.0	0	0	---	0.00	30.304 
09:15	6.3	6.3	6.3	84	2.5	0	0	---	0.00	30.307 
09:20	6.9	6.9	6.9	84	3.1	0	0	---	0.00	30.307 
09:25	7.6	7.6	7.6	85	4.1	0	0	---	0.00	30.307 
09:30	8.4	8.4	8.4	85	4.8	0	0	---	0.00	30.306 
09:35	9.2	9.2	9.2	86	5.9	0	0	---	0.00	30.306 
09:40	10.2	10.2	10.2	86	6.9	0	0	---	0.00	30.306 
09:45	11.4	11.4	11.4	87	8.3	0	0	---	0.00	30.312 
09:50	12.6	12.6	12.6	88	9.7	0	0	---	0.00	30.312 
09:55	13.6	13.6	13.6	88	10.7	0	0	---	0.00	30.312 
10:00	14.4	14.4	14.4	88	11.5	0	0	---	0.00	30.321 
10:05	15.2	15.2	15.2	88	12.3	0	1	248	0.00	30.321 
10:10	15.9	15.9	15.9	88	13.0	0	1	248	0.00	30.321 
10:15	16.5	16.5	16.5	88	13.6	0	1	248	0.00	30.326 
10:20	16.9	16.9	16.9	88	14.0	0	1	248	0.00	30.326 
10:25	17.3	17.3	17.3	88	14.4	0	0	---	0.00	30.326 
10:30	17.8	17.8	17.8	88	14.9	0	2	248	0.00	30.325 
10:35	18.1	18.1	18.1	88	15.2	0	1	248	0.00	30.325 
10:40	18.6	18.6	18.6	88	15.6	0	1	248	0.00	30.325 
10:45	18.8	18.8	18.8	88	15.8	0	1	248	0.00	30.339 
10:50	19.2	19.2	19.2	88	16.2	0	1	248	0.00	30.339 
10:55	19.7	19.7	19.7	88	16.7	0	1	248	0.00	30.339 
11:00	20.0	20.0	20.0	88	17.0	0	1	248	0.00	30.344 
11:05	20.3	20.3	20.3	88	17.3	0	1	248	0.00	30.344 
11:10	20.6	20.6	20.6	88	17.6	0	1	248	0.00	30.344 
11:15	21.0	21.0	21.0	88	18.0	0	2	248	0.00	30.352 
11:20	21.3	21.3	21.3	88	18.3	0	2	248	0.00	30.352 
11:25	21.6	21.6	21.6	87	18.3	0	1	248	0.00	30.352 
11:30	21.9	21.9	21.9	86	18.4	0	1	248	0.00	30.353 
11:35	22.4	22.4	22.4	85	18.6	0	1	248	0.00	30.353 
11:40	22.9	22.9	22.9	83	18.5	0	2	248	0.00	30.353 
11:45	23.3	23.3	23.3	80	18.1	0	1	248	0.00	30.355 
11:50	23.6	23.6	23.6	77	17.5	0	2	338	0.00	30.355 
11:55	23.8	23.8	23.8	75	17.1	1	2	338	0.00	30.355 
12:00	24.1	24.1	24.1	73	16.7	0	2	225	0.00	30.350 
12:05	24.2	24.2	24.2	70	15.9	0	2	225	0.00	30.350 
12:10	24.5	24.5	24.5	68	15.5	0	2	225	0.00	30.350 
12:15	24.8	24.8	24.8	68	15.8	0	2	225	0.00	30.353 
12:20	25.1	25.1	25.1	68	16.1	0	1	225	0.00	30.353 
12:25	25.3	25.3	25.3	68	16.2	0	3	248	0.00	30.353 
12:30	25.6	25.6	25.6	66	15.8	0	2	248	0.00	30.359 
12:35	25.7	25.7	25.7	64	15.2	0	1	248	0.00	30.359 
12:40	25.8	25.8	25.8	64	15.3	0	2	248	0.00	30.359 
12:45	26.0	26.0	26.0	63	15.2	1	3	248	0.00	30.360 
12:50	26.1	26.1	26.1	62	14.9	0	2	248	0.00	30.360 
12:55	26.1	26.1	26.1	61	14.5	0	2	248	0.00	30.360 
13:00	26.3	26.3	26.3	61	14.7	0	2	248	0.00	30.361 
13:05	26.6	26.6	26.6	61	15.0	0	2	248	0.00	30.361 
13:10	26.7	26.7	26.7	60	14.7	1	2	248	0.00	30.361 
13:15	26.9	26.9	26.9	60	14.9	1	2	248	0.00	30.363 
13:20	27.0	27.0	27.0	62	15.7	0	2	0	0.00	30.363 
13:25	27.3	27.3	27.3	61	15.7	0	2	0	0.00	30.363 
13:30	27.3	27.3	27.3	60	15.3	0	2	0	0.00	30.360 
13:35	27.3	27.3	27.3	60	15.3	0	2	0	0.00	30.360 
13:40	27.5	27.5	27.5	59	15.1	0	2	0	0.00	30.360 
13:45	27.5	27.5	27.5	59	15.1	1	2	0	0.00	30.355 
13:50	27.8	27.8	27.8	59	15.4	0	2	0	0.00	30.355 
13:55	27.8	27.8	27.8	57	14.6	0	2	0	0.00	30.355 
14:00	27.8	27.8	27.8	57	14.6	1	2	0	0.00	30.364 
14:05	27.9	27.9	27.9	57	14.7	1	3	0	0.00	30.364 
14:10	28.1	28.1	28.1	58	15.3	1	2	0	0.00	30.364 
14:15	28.2	28.2	28.2	56	14.5	1	3	315	0.00	30.367 
14:20	28.2	28.2	28.2	56	14.5	1	2	338	0.00	30.367 
14:25	28.1	28.1	28.1	56	14.5	0	2	338	0.00	30.367 
14:30	28.2	28.2	28.2	56	14.5	1	3	338	0.00	30.374 
14:35	28.4	28.4	28.4	56	14.7	1	2	338	0.00	30.374 
14:40	28.2	28.2	28.2	56	14.5	0	2	338	0.00	30.374 
14:45	28.4	28.4	28.4	56	14.7	0	2	338	0.00	30.379 
14:50	28.5	28.5	28.5	56	14.8	0	2	338	0.00	30.379 
14:55	28.5	28.5	28.5	55	14.4	1	3	338	0.00	30.379 
15:00	28.5	28.5	28.5	56	14.8	0	2	338	0.00	30.381 
15:05	28.5	28.5	28.5	55	14.4	0	2	338	0.00	30.381 
15:10	28.5	28.5	28.5	56	14.8	0	2	338	0.00	30.381 
15:15	28.4	28.4	28.4	55	14.3	0	2	338	0.00	30.379 
15:20	28.4	28.4	28.4	56	14.7	0	2	338	0.00	30.379 
15:25	28.4	28.4	28.4	55	14.3	0	2	338	0.00	30.379 
15:30	28.2	28.2	28.2	55	14.1	0	2	338	0.00	30.374 
15:35	28.2	28.2	28.2	55	14.1	0	1	338	0.00	30.374 
15:40	28.1	28.1	28.1	54	13.6	0	2	338	0.00	30.374 
15:45	27.9	27.9	27.9	53	13.0	0	1	338	0.00	30.379 
15:50	27.8	27.8	27.8	53	12.9	0	2	338	0.00	30.379 
15:55	27.6	27.6	27.6	53	12.7	0	1	338	0.00	30.379 
16:00	27.5	27.5	27.5	53	12.6	0	1	338	0.00	30.383 
16:05	27.5	27.5	27.5	54	13.1	0	1	338	0.00	30.383 
16:10	27.3	27.3	27.3	53	12.5	0	2	338	0.00	30.383 
16:15	27.2	27.2	27.2	54	12.8	0	1	338	0.00	30.398 
16:20	27.2	27.2	27.2	54	12.8	0	1	338	0.00	30.398 
16:25	27.0	27.0	27.0	54	12.6	0	0	---	0.00	30.398 
16:30	26.9	26.9	26.9	55	12.9	0	1	338	0.00	30.397 
16:35	26.7	26.7	26.7	55	12.7	0	0	---	0.00	30.397 
16:40	26.6	26.6	26.6	55	12.6	0	0	---	0.00	30.397 
16:45	26.4	26.4	26.4	55	12.5	0	0	---	0.00	30.400 
16:50	26.3	26.3	26.3	55	12.4	0	0	---	0.00	30.400 
16:55	26.1	26.1	26.1	55	12.2	0	0	---	0.00	30.400 
17:00	26.0	26.0	26.0	55	12.1	0	0	---	0.00	30.400 
17:05	26.0	26.0	26.0	55	12.1	0	0	---	0.00	30.400 
17:10	25.8	25.8	25.8	55	11.9	0	0	---	0.00	30.400 
17:15	25.6	25.6	25.6	55	11.7	0	0	---	0.00	30.396 
17:20	25.4	25.4	25.4	55	11.5	0	0	---	0.00	30.396 
17:25	25.0	25.0	25.0	56	11.5	0	0	---	0.00	30.396 
17:30	24.5	24.5	24.5	57	11.5	0	0	---	0.00	30.400 
17:35	24.1	24.1	24.1	58	11.5	0	0	---	0.00	30.400 
17:40	23.6	23.6	23.6	59	11.4	0	0	---	0.00	30.400 
17:45	23.3	23.3	23.3	61	11.9	0	0	---	0.00	30.417 
17:50	23.0	23.0	23.0	62	11.9	0	0	---	0.00	30.417 
17:55	22.7	22.7	22.7	63	12.0	0	0	---	0.00	30.417 
18:00	22.2	22.2	22.2	64	11.9	0	0	---	0.00	30.434 
18:05	21.6	21.6	21.6	64	11.3	0	0	---	0.00	30.434 
18:10	21.3	21.3	21.3	65	11.4	0	0	---	0.00	30.434 
18:15	20.8	20.8	20.8	66	11.3	0	0	---	0.00	30.437 
18:20	20.5	20.5	20.5	68	11.6	0	0	---	0.00	30.437 
18:25	20.2	20.2	20.2	69	11.7	0	0	---	0.00	30.437 
18:30	19.9	19.9	19.9	70	11.7	0	0	---	0.00	30.437 
18:35	19.5	19.5	19.5	70	11.3	0	0	---	0.00	30.437 
18:40	19.2	19.2	19.2	70	11.0	0	0	---	0.00	30.437 
18:45	19.1	19.1	19.1	71	11.3	0	0	---	0.00	30.438 
18:50	18.8	18.8	18.8	72	11.3	0	0	---	0.00	30.438 
18:55	18.4	18.4	18.4	72	10.9	0	0	---	0.00	30.438 
19:00	18.1	18.1	18.1	73	10.9	0	0	---	0.00	30.440 
19:05	17.8	17.8	17.8	73	10.6	0	0	---	0.00	30.440 
19:10	17.5	17.5	17.5	74	10.7	0	0	---	0.00	30.440 
19:15	17.3	17.3	17.3	74	10.5	0	0	---	0.00	30.446 
19:20	17.2	17.2	17.2	75	10.7	0	0	---	0.00	30.446 
19:25	17.0	17.0	17.0	76	10.8	0	0	---	0.00	30.446 
19:30	16.9	16.9	16.9	76	10.7	0	0	---	0.00	30.455 
19:35	16.5	16.5	16.5	76	10.3	0	0	---	0.00	30.455 
19:40	16.2	16.2	16.2	77	10.3	0	0	---	0.00	30.455 
19:45	15.9	15.9	15.9	77	10.0	0	0	---	0.00	30.457 
19:50	15.7	15.7	15.7	77	9.8	0	0	---	0.00	30.457 
19:55	15.6	15.6	15.6	78	10.0	0	0	---	0.00	30.457 
20:00	15.4	15.4	15.4	78	9.8	0	0	---	0.00	30.456 
20:05	15.4	15.4	15.4	79	10.1	0	0	---	0.00	30.456 
20:10	15.1	15.1	15.1	79	9.8	0	0	---	0.00	30.456 
20:15	14.9	14.9	14.9	79	9.6	0	0	---	0.00	30.455 
20:20	14.6	14.6	14.6	80	9.6	0	0	---	0.00	30.455 
20:25	14.4	14.4	14.4	80	9.4	0	0	---	0.00	30.455 
20:30	14.3	14.3	14.3	80	9.3	0	0	---	0.00	30.462 
20:35	14.1	14.1	14.1	81	9.4	0	0	---	0.00	30.462 
20:40	14.0	14.0	14.0	81	9.3	0	0	---	0.00	30.462 
20:45	13.8	13.8	13.8	81	9.1	0	0	---	0.00	30.462 
20:50	13.6	13.6	13.6	82	9.1	0	0	---	0.00	30.462 
20:55	13.6	13.6	13.6	82	9.1	0	0	---	0.00	30.462 
21:00	13.6	13.6	13.6	83	9.4	0	0	---	0.00	30.463 
21:05	13.6	13.6	13.6	83	9.4	0	0	---	0.00	30.463 
21:10	13.5	13.5	13.5	83	9.3	0	0	---	0.00	30.463 
21:15	13.3	13.3	13.3	83	9.1	0	0	---	0.00	30.456 
21:20	12.9	12.9	12.9	83	8.7	0	0	---	0.00	30.456 
21:25	12.8	12.8	12.8	83	8.6	0	0	---	0.00	30.456 
21:30	12.4	12.4	12.4	83	8.2	0	0	---	0.00	30.457 
21:35	12.4	12.4	12.4	83	8.2	0	0	---	0.00	30.457 
21:40	12.3	12.3	12.3	84	8.4	0	0	---	0.00	30.457 
21:45	12.4	12.4	12.4	84	8.5	0	0	---	0.00	30.458 
21:50	12.4	12.4	12.4	84	8.5	0	0	---	0.00	30.458 
21:55	12.3	12.3	12.3	84	8.4	0	0	---	0.00	30.458 
22:00	12.3	12.3	12.3	84	8.4	0	0	---	0.00	30.454 
22:05	12.1	12.1	12.1	84	8.2	0	0	---	0.00	30.454 
22:10	11.9	11.9	11.9	84	8.0	0	0	---	0.00	30.454 
22:15	11.7	11.7	11.7	84	7.8	0	0	---	0.00	30.443 
22:20	11.6	11.6	11.6	84	7.7	0	0	---	0.00	30.443 
22:25	11.4	11.4	11.4	84	7.5	0	0	---	0.00	30.443 
22:30	11.2	11.2	11.2	84	7.3	0	0	---	0.00	30.439 
22:35	11.1	11.1	11.1	84	7.2	0	0	---	0.00	30.439 
22:40	10.7	10.7	10.7	84	6.8	0	0	---	0.00	30.439 
22:45	10.5	10.5	10.5	84	6.6	0	0	---	0.00	30.436 
22:50	10.5	10.5	10.5	84	6.6	0	0	---	0.00	30.436 
22:55	10.5	10.5	10.5	84	6.6	0	0	---	0.00	30.436 
23:00	10.5	10.5	10.5	84	6.6	0	0	---	0.00	30.435 
23:05	10.4	10.4	10.4	84	6.5	0	0	---	0.00	30.435 
23:10	10.2	10.2	10.2	84	6.3	0	0	---	0.00	30.435 
23:15	10.0	10.0	10.0	84	6.2	0	0	---	0.00	30.427 
23:20	10.0	10.0	10.0	84	6.2	0	0	---	0.00	30.427 
23:25	10.0	10.0	10.0	84	6.2	0	0	---	0.00	30.427 
23:30	10.0	10.0	10.0	85	6.4	0	0	---	0.00	30.420 
23:35	10.0	10.0	10.0	85	6.4	0	0	---	0.00	30.420 
23:40	9.9	9.9	9.9	84	6.1	0	0	---	0.00	30.420 
23:45	9.9	9.9	9.9	84	6.1	0	0	---	0.00	30.415 
23:50	9.7	9.7	9.7	84	5.9	0	0	---	0.00	30.415 
23:55	9.5	9.5	9.5	84	5.7	0	0	---	0.00	30.415 

CoCoRaHS
IN-AL-39
A2 Web Hosting
Creative Commons License
GoDaddy
search engine by freefind advanced

loaded 2018-11-18 12:17:33 • last modified 2010-11-18 10:43:29
Privacy PolicyDisclaimer
• wx.awcolley.com is powered by PmWiki v.2002016 •
• all content (unless otherwise noted) © 2018 A W Colley